createdAt,value
2023-01-19T00:02:21.192Z,12.00
2023-01-19T00:04:53.409Z,11.95
2023-01-19T00:07:25.638Z,10.78
2023-01-19T00:09:57.962Z,11.25
2023-01-19T00:12:30.317Z,10.85
2023-01-19T00:15:02.533Z,11.03
2023-01-19T00:17:34.983Z,11.05
2023-01-19T00:20:07.973Z,11.12
2023-01-19T00:22:40.031Z,9.40
2023-01-19T00:25:13.184Z,8.05
2023-01-19T00:27:47.099Z,10.48
2023-01-19T00:30:19.501Z,10.85
2023-01-19T00:32:51.660Z,10.65
2023-01-19T00:35:24.424Z,8.78
2023-01-19T00:37:57.981Z,8.65
2023-01-19T00:40:29.993Z,8.33
2023-01-19T00:43:03.676Z,10.28
2023-01-19T00:45:36.173Z,9.50
2023-01-19T00:48:08.199Z,5.33
2023-01-19T00:50:40.403Z,7.78
2023-01-19T00:53:12.738Z,9.88
2023-01-19T00:55:45.042Z,10.48
2023-01-19T00:58:17.137Z,9.65
2023-01-19T01:00:49.371Z,8.03
2023-01-19T01:03:23.068Z,9.50
2023-01-19T01:05:55.007Z,8.03
2023-01-19T01:08:27.360Z,9.80
2023-01-19T01:10:59.596Z,8.53
2023-01-19T01:13:32.001Z,10.43
2023-01-19T01:16:04.468Z,10.85
2023-01-19T01:18:36.674Z,10.50
2023-01-19T01:21:09.464Z,10.00
2023-01-19T01:23:41.566Z,10.55
2023-01-19T01:26:13.801Z,7.95
2023-01-19T01:28:46.437Z,10.58
2023-01-19T01:31:18.753Z,10.70
2023-01-19T01:33:51.128Z,10.55
2023-01-19T01:36:23.400Z,9.48
2023-01-19T01:38:55.549Z,11.05
2023-01-19T01:41:27.912Z,9.40
2023-01-19T01:44:02.228Z,11.68
2023-01-19T01:46:34.228Z,9.40
2023-01-19T01:49:14.975Z,11.35
2023-01-19T01:51:50.220Z,9.63
2023-01-19T01:54:28.150Z,11.53
2023-01-19T01:57:03.738Z,10.85
2023-01-19T01:59:39.515Z,11.48
2023-01-19T02:02:40.738Z,11.88
2023-01-19T02:05:15.571Z,12.25
2023-01-19T02:08:10.792Z,10.68
2023-01-19T02:11:01.488Z,12.23
2023-01-19T02:13:36.387Z,10.48
2023-01-19T02:16:10.099Z,10.30
2023-01-19T02:18:43.365Z,9.03
2023-01-19T02:21:35.424Z,8.98
2023-01-19T02:24:09.050Z,11.12
2023-01-19T02:26:47.226Z,12.43
2023-01-19T02:29:25.749Z,9.78
2023-01-19T02:31:59.409Z,11.53
2023-01-19T02:34:32.353Z,11.85
2023-01-19T02:37:07.217Z,10.80
2023-01-19T02:39:49.801Z,10.13
2023-01-19T02:42:30.550Z,12.70
2023-01-19T02:45:05.554Z,11.15
2023-01-19T02:47:52.742Z,12.03
2023-01-19T02:50:47.624Z,11.65
2023-01-19T02:56:23.875Z,10.80
2023-01-19T02:59:10.981Z,10.60
2023-01-19T03:01:54.996Z,8.53
2023-01-19T03:04:33.617Z,10.78
2023-01-19T03:07:14.255Z,11.80
2023-01-19T03:09:49.446Z,12.05
2023-01-19T03:12:30.492Z,11.48
2023-01-19T03:15:05.646Z,11.08
2023-01-19T03:17:39.488Z,12.53
2023-01-19T03:20:13.815Z,9.83
2023-01-19T03:22:47.195Z,10.60
2023-01-19T03:25:21.622Z,8.93
2023-01-19T03:27:57.019Z,10.45
2023-01-19T03:30:32.351Z,9.73
2023-01-19T03:33:08.073Z,8.43
2023-01-19T03:35:43.629Z,10.85
2023-01-19T03:38:19.175Z,11.28
2023-01-19T03:40:53.713Z,11.18
2023-01-19T03:43:28.972Z,9.50
2023-01-19T03:46:02.378Z,7.45
2023-01-19T03:48:35.029Z,10.07
2023-01-19T03:51:09.878Z,9.28
2023-01-19T03:53:43.238Z,9.68
2023-01-19T03:56:21.240Z,10.58
2023-01-19T03:58:56.123Z,9.95
2023-01-19T04:03:59.287Z,8.83
2023-01-19T04:06:32.179Z,9.15
2023-01-19T04:09:05.069Z,9.50
2023-01-19T04:11:37.620Z,9.75
2023-01-19T04:14:09.652Z,9.93
2023-01-19T04:16:42.477Z,11.15
2023-01-19T04:19:14.659Z,7.25
2023-01-19T04:21:51.519Z,10.32
2023-01-19T04:24:24.645Z,10.28
2023-01-19T04:29:29.694Z,10.45
2023-01-19T04:32:02.069Z,8.95
2023-01-19T04:34:34.587Z,9.50
2023-01-19T04:37:08.610Z,10.15
2023-01-19T04:39:41.253Z,9.73
2023-01-19T04:42:14.126Z,11.75
2023-01-19T04:44:46.967Z,10.28
2023-01-19T04:47:19.252Z,9.38
2023-01-19T04:49:52.718Z,10.50
2023-01-19T04:52:30.875Z,11.20
2023-01-19T04:55:05.667Z,11.60
2023-01-19T04:57:38.690Z,12.55
2023-01-19T05:00:12.178Z,10.93
2023-01-19T05:02:45.464Z,9.53
2023-01-19T05:05:18.739Z,10.90
2023-01-19T05:07:51.454Z,9.85
2023-01-19T05:10:24.188Z,11.43
2023-01-19T05:12:56.732Z,10.65
2023-01-19T05:15:30.215Z,10.15
2023-01-19T05:18:03.717Z,10.82
2023-01-19T05:20:36.459Z,10.82
2023-01-19T05:23:09.512Z,11.63
2023-01-19T05:25:43.691Z,11.50
2023-01-19T05:28:16.871Z,12.35
2023-01-19T05:30:50.791Z,10.32
2023-01-19T05:33:24.937Z,9.08
2023-01-19T05:35:58.293Z,11.53
2023-01-19T05:38:35.417Z,10.85
2023-01-19T05:41:07.864Z,11.95
2023-01-19T05:43:40.416Z,11.22
2023-01-19T05:46:12.807Z,9.95
2023-01-19T05:48:45.363Z,10.45
2023-01-19T05:51:17.514Z,10.32
2023-01-19T05:53:49.659Z,11.65
2023-01-19T05:56:22.189Z,12.15
2023-01-19T05:58:54.731Z,11.73
2023-01-19T06:01:28.275Z,10.35
2023-01-19T06:04:01.474Z,10.43
2023-01-19T06:06:35.477Z,11.27
2023-01-19T06:09:09.573Z,12.03
2023-01-19T06:11:41.945Z,10.80
2023-01-19T06:14:14.448Z,11.33
2023-01-19T06:16:47.167Z,10.23
2023-01-19T06:19:20.699Z,12.13
2023-01-19T06:21:53.277Z,10.60
2023-01-19T06:24:25.747Z,10.78
2023-01-19T06:26:58.370Z,12.45
2023-01-19T06:29:31.621Z,11.40
2023-01-19T06:32:04.675Z,11.57
2023-01-19T06:34:37.198Z,11.55
2023-01-19T06:37:11.099Z,11.83
2023-01-19T06:39:45.296Z,12.25
2023-01-19T06:42:18.253Z,10.15
2023-01-19T06:44:50.988Z,11.33
2023-01-19T06:47:23.342Z,11.85
2023-01-19T06:49:56.121Z,10.72
2023-01-19T06:52:29.163Z,11.20
2023-01-19T06:55:01.509Z,10.85
2023-01-19T06:57:34.407Z,11.22
2023-01-19T07:00:09.536Z,10.30
2023-01-19T07:02:46.036Z,11.20
2023-01-19T07:05:20.079Z,12.30
2023-01-19T07:07:58.307Z,11.48
2023-01-19T07:11:26.172Z,12.03
2023-01-19T07:13:06.553Z,12.40
2023-01-19T07:15:39.003Z,12.00
2023-01-19T07:18:11.967Z,11.90
2023-01-19T07:20:46.276Z,11.12
2023-01-19T07:23:19.478Z,11.95
2023-01-19T07:25:51.584Z,12.50
2023-01-19T07:28:23.724Z,10.35
2023-01-19T07:30:57.308Z,10.63
2023-01-19T07:33:30.000Z,11.93
2023-01-19T07:36:02.306Z,11.68
2023-01-19T07:38:35.158Z,12.53
2023-01-19T07:41:10.520Z,10.32
2023-01-19T07:43:42.990Z,12.23
2023-01-19T07:46:15.469Z,11.00
2023-01-19T07:48:48.265Z,12.60
2023-01-19T07:51:21.411Z,11.95
2023-01-19T07:53:54.157Z,11.78
2023-01-19T07:56:28.030Z,12.00
2023-01-19T07:59:00.253Z,11.70
2023-01-19T08:01:34.050Z,11.78
2023-01-19T08:04:06.904Z,12.07
2023-01-19T08:06:41.179Z,11.45
2023-01-19T08:09:13.375Z,13.22
2023-01-19T08:11:46.151Z,12.47
2023-01-19T08:14:20.337Z,11.83
2023-01-19T08:16:53.426Z,12.90
2023-01-19T08:19:26.736Z,12.75
2023-01-19T08:22:00.687Z,11.57
2023-01-19T08:24:34.146Z,11.38
2023-01-19T08:27:07.659Z,12.93
2023-01-19T08:29:44.327Z,11.28
2023-01-19T08:32:18.401Z,11.63
2023-01-19T08:34:52.652Z,11.85
2023-01-19T08:37:27.662Z,10.50
2023-01-19T08:40:00.629Z,11.97
2023-01-19T08:42:34.011Z,11.45
2023-01-19T08:45:08.069Z,12.90
2023-01-19T08:47:40.908Z,16.25
2023-01-19T08:50:14.032Z,10.63
2023-01-19T08:52:47.805Z,11.03
2023-01-19T08:55:20.188Z,11.12
2023-01-19T08:57:58.715Z,10.72
2023-01-19T09:00:37.617Z,13.78
2023-01-19T09:03:12.291Z,11.45
2023-01-19T09:05:44.873Z,12.40
2023-01-19T09:08:19.202Z,11.12
2023-01-19T09:10:54.207Z,12.60
2023-01-19T09:13:26.980Z,12.13
2023-01-19T09:15:59.848Z,11.03
2023-01-19T09:18:32.243Z,11.53
2023-01-19T09:21:05.613Z,11.73
2023-01-19T09:23:39.262Z,12.87
2023-01-19T09:26:12.363Z,10.78
2023-01-19T09:28:44.554Z,11.80
2023-01-19T09:31:17.860Z,13.62
2023-01-19T09:33:50.459Z,12.13
2023-01-19T09:36:23.442Z,12.23
2023-01-19T09:38:55.474Z,12.60
2023-01-19T09:41:28.609Z,12.23
2023-01-19T09:44:02.156Z,11.40
2023-01-19T09:46:42.381Z,11.93
2023-01-19T09:49:18.436Z,12.15
2023-01-19T09:51:52.429Z,12.03
2023-01-19T09:54:41.424Z,14.13
2023-01-19T09:57:15.023Z,12.82
2023-01-19T09:59:50.842Z,13.15
2023-01-19T10:02:40.513Z,12.90
2023-01-19T10:05:30.931Z,11.80
2023-01-19T10:08:24.527Z,13.10
2023-01-19T10:10:59.194Z,11.93
2023-01-19T10:13:37.465Z,13.58
2023-01-19T10:16:12.856Z,12.18
2023-01-19T10:18:51.986Z,13.00
2023-01-19T10:21:33.649Z,11.63
2023-01-19T10:24:28.744Z,12.82
2023-01-19T10:29:38.389Z,13.30
2023-01-19T10:32:17.628Z,12.78
2023-01-19T10:34:52.301Z,13.00
2023-01-19T10:37:32.760Z,13.15
2023-01-19T10:40:13.886Z,13.70
2023-01-19T10:42:46.233Z,14.58
2023-01-19T10:45:23.655Z,13.65
2023-01-19T10:47:58.765Z,13.50
2023-01-19T10:50:33.246Z,13.98
2023-01-19T10:53:07.537Z,14.13
2023-01-19T10:55:41.921Z,14.07
2023-01-19T10:58:34.196Z,13.85
2023-01-19T11:01:18.873Z,18.98
2023-01-19T11:03:53.391Z,14.20
2023-01-19T11:09:20.391Z,13.80
2023-01-19T11:11:54.086Z,13.18
2023-01-19T11:14:27.765Z,14.10
2023-01-19T11:17:00.707Z,12.53
2023-01-19T11:19:34.912Z,14.75
2023-01-19T11:22:13.180Z,15.15
2023-01-19T11:24:46.164Z,14.83
2023-01-19T11:27:20.553Z,15.78
2023-01-19T11:30:06.068Z,14.70
2023-01-19T11:32:39.156Z,13.58
2023-01-19T11:35:33.242Z,14.68
2023-01-19T11:38:23.793Z,14.80
2023-01-19T11:40:59.123Z,14.73
2023-01-19T11:43:48.196Z,14.93
2023-01-19T11:46:06.317Z,14.47
2023-01-19T11:48:58.060Z,14.45
2023-01-19T11:51:33.847Z,15.15
2023-01-19T11:54:09.191Z,15.45
2023-01-19T11:56:44.198Z,15.78
2023-01-19T11:59:17.060Z,15.78
2023-01-19T12:01:52.551Z,16.57
2023-01-19T12:04:30.612Z,14.90
2023-01-19T12:07:09.776Z,15.38
2023-01-19T12:09:48.189Z,14.13
2023-01-19T12:12:35.742Z,15.48
2023-01-19T12:15:11.002Z,15.30
2023-01-19T12:17:46.142Z,14.43
2023-01-19T12:20:30.297Z,15.20
2023-01-19T12:23:22.195Z,16.07
2023-01-19T12:26:09.745Z,16.17
2023-01-19T12:28:48.070Z,16.17
2023-01-19T12:31:24.780Z,16.42
2023-01-19T12:33:56.898Z,14.00
2023-01-19T12:36:36.675Z,19.07
2023-01-19T12:39:22.895Z,17.87
2023-01-19T12:42:09.838Z,17.05
2023-01-19T12:44:44.674Z,17.57
2023-01-19T12:50:04.465Z,12.10
2023-01-19T12:52:44.277Z,17.98
2023-01-19T12:55:25.344Z,17.30
2023-01-19T12:58:03.385Z,16.50
2023-01-19T13:00:40.899Z,18.65
2023-01-19T13:03:22.311Z,17.62
2023-01-19T13:05:56.621Z,14.20
2023-01-19T13:08:33.722Z,17.90
2023-01-19T13:11:13.221Z,17.27
2023-01-19T13:13:49.029Z,17.40
2023-01-19T13:16:27.809Z,17.35
2023-01-19T13:19:09.536Z,18.62
2023-01-19T13:21:48.338Z,15.85
2023-01-19T13:24:26.793Z,17.15
2023-01-19T13:27:01.525Z,17.42
2023-01-19T13:29:44.225Z,17.27
2023-01-19T13:32:21.632Z,16.07
2023-01-19T13:34:58.953Z,16.67
2023-01-19T13:37:37.301Z,18.10
2023-01-19T13:40:11.555Z,17.12
2023-01-19T13:42:45.425Z,17.55
2023-01-19T13:45:29.315Z,16.62
2023-01-19T13:48:04.382Z,18.23
2023-01-19T13:50:43.074Z,17.98
2023-01-19T13:53:23.672Z,16.60
2023-01-19T13:56:11.040Z,17.55
2023-01-19T13:58:43.252Z,17.45
2023-01-19T14:01:27.175Z,17.95
2023-01-19T14:03:58.733Z,16.62
2023-01-19T14:06:40.384Z,17.23
2023-01-19T14:09:22.343Z,16.90
2023-01-19T14:12:12.753Z,16.20
2023-01-19T14:14:49.761Z,17.07
2023-01-19T14:17:30.821Z,16.95
2023-01-19T14:20:05.007Z,14.53
2023-01-19T14:22:49.393Z,16.40
2023-01-19T14:28:27.984Z,16.77
2023-01-19T14:31:03.623Z,16.63
2023-01-19T14:33:46.314Z,16.95
2023-01-19T14:36:30.739Z,15.32
2023-01-19T14:39:04.016Z,16.73
2023-01-19T14:41:48.362Z,16.97
2023-01-19T14:44:40.663Z,15.68
2023-01-19T14:47:31.919Z,15.05
2023-01-19T14:50:10.906Z,15.28
2023-01-19T14:52:45.215Z,14.93
2023-01-19T14:55:26.075Z,15.18
2023-01-19T14:57:58.752Z,15.93
2023-01-19T15:00:31.155Z,17.50
2023-01-19T15:03:03.459Z,16.48
2023-01-19T15:05:35.746Z,14.70
2023-01-19T15:08:09.011Z,16.80
2023-01-19T15:10:42.747Z,17.77
2023-01-19T15:13:20.311Z,16.10
2023-01-19T15:15:54.197Z,17.00
2023-01-19T15:18:29.139Z,16.05
2023-01-19T15:21:03.684Z,15.65
2023-01-19T15:23:37.331Z,14.93
2023-01-19T15:26:11.724Z,14.18
2023-01-19T15:28:44.318Z,15.18
2023-01-19T15:31:18.972Z,8.70
2023-01-19T15:33:51.529Z,13.03
2023-01-19T15:36:24.553Z,13.20
2023-01-19T15:38:57.510Z,12.05
2023-01-19T15:41:30.750Z,13.68
2023-01-19T15:44:03.803Z,12.90
2023-01-19T15:46:36.968Z,12.07
2023-01-19T15:51:43.770Z,11.20
2023-01-19T15:54:16.558Z,13.32
2023-01-19T15:56:49.361Z,11.97
2023-01-19T15:59:21.893Z,12.53
2023-01-19T16:01:54.722Z,12.00
2023-01-19T16:04:27.147Z,11.73
2023-01-19T16:07:00.894Z,11.25
2023-01-19T16:09:33.342Z,13.15
2023-01-19T16:12:05.807Z,11.43
2023-01-19T16:14:38.034Z,12.50
2023-01-19T16:17:12.565Z,10.78
2023-01-19T16:19:46.990Z,12.40
2023-01-19T16:22:19.612Z,11.60
2023-01-19T16:24:53.355Z,11.93
2023-01-19T16:27:26.805Z,12.13
2023-01-19T16:30:01.182Z,11.35
2023-01-19T16:32:36.637Z,12.07
2023-01-19T16:35:09.509Z,8.68
2023-01-19T16:37:41.560Z,9.43
2023-01-19T16:40:14.362Z,10.48
2023-01-19T16:42:47.454Z,10.00
2023-01-19T16:45:19.764Z,10.68
2023-01-19T16:47:52.411Z,11.53
2023-01-19T16:50:24.509Z,15.10
2023-01-19T16:52:59.354Z,11.00
2023-01-19T16:55:31.588Z,11.83
2023-01-19T16:58:04.203Z,12.30
2023-01-19T17:00:36.779Z,11.90
2023-01-19T17:03:08.763Z,12.43
2023-01-19T17:05:41.022Z,6.05
2023-01-19T17:08:13.210Z,11.22
2023-01-19T17:10:45.392Z,12.30
2023-01-19T17:13:17.905Z,12.70
2023-01-19T17:15:51.113Z,11.95
2023-01-19T17:18:24.780Z,11.55
2023-01-19T17:21:02.832Z,8.83
2023-01-19T17:23:36.368Z,10.75
2023-01-19T17:26:08.655Z,12.13
2023-01-19T17:28:41.030Z,12.93
2023-01-19T17:31:16.397Z,13.00
2023-01-19T17:33:50.898Z,14.10
2023-01-19T17:36:25.541Z,12.90
2023-01-19T17:39:00.424Z,12.88
2023-01-19T17:41:35.276Z,14.55
2023-01-19T17:44:08.787Z,13.88
2023-01-19T17:46:41.279Z,14.58
2023-01-19T17:49:13.330Z,16.12
2023-01-19T17:51:45.909Z,13.80
2023-01-19T17:54:18.134Z,15.13
2023-01-19T17:56:51.340Z,16.23
2023-01-19T17:59:23.503Z,16.57
2023-01-19T18:01:55.650Z,16.45
2023-01-19T18:04:31.385Z,14.95
2023-01-19T18:07:03.144Z,16.65
2023-01-19T18:09:35.395Z,15.58
2023-01-19T18:12:08.209Z,15.32
2023-01-19T18:14:41.166Z,12.68
2023-01-19T18:17:13.342Z,13.98
2023-01-19T18:19:45.763Z,14.23
2023-01-19T18:22:18.584Z,17.20
2023-01-19T18:24:50.693Z,18.20
2023-01-19T18:27:23.116Z,17.25
2023-01-19T18:29:55.451Z,17.87
2023-01-19T18:32:27.647Z,18.05
2023-01-19T18:35:00.015Z,20.08
2023-01-19T18:37:33.033Z,17.48
2023-01-19T18:40:05.451Z,19.95
2023-01-19T18:42:38.296Z,18.80
2023-01-19T18:45:11.179Z,20.15
2023-01-19T18:47:43.446Z,20.68
2023-01-19T18:50:15.994Z,15.75
2023-01-19T18:52:50.960Z,19.98
2023-01-19T18:55:24.618Z,20.65
2023-01-19T18:57:56.802Z,19.25
2023-01-19T19:00:29.402Z,18.57
2023-01-19T19:03:01.924Z,22.85
2023-01-19T19:05:34.441Z,22.17
2023-01-19T19:08:07.031Z,23.62
2023-01-19T19:10:40.514Z,21.07
2023-01-19T19:13:17.730Z,22.82
2023-01-19T19:15:51.864Z,21.60
2023-01-19T19:18:24.166Z,22.98
2023-01-19T19:20:56.702Z,24.50
2023-01-19T19:23:28.865Z,23.80
2023-01-19T19:26:11.262Z,24.15
2023-01-19T19:28:43.509Z,24.15
2023-01-19T19:31:20.176Z,22.30
2023-01-19T19:33:52.855Z,24.82
2023-01-19T19:36:26.068Z,23.60
2023-01-19T19:38:59.324Z,15.85
2023-01-19T19:41:32.626Z,24.47
2023-01-19T19:44:04.879Z,23.00
2023-01-19T19:46:37.325Z,22.73
2023-01-19T19:49:11.250Z,22.77
2023-01-19T19:51:43.709Z,24.70
2023-01-19T19:54:15.891Z,22.73
2023-01-19T19:56:50.119Z,22.37
2023-01-19T19:59:22.186Z,16.93
2023-01-19T20:01:55.229Z,20.08
2023-01-19T20:04:27.841Z,21.95
2023-01-19T20:07:00.248Z,22.80
2023-01-19T20:09:33.067Z,23.62
2023-01-19T20:12:05.460Z,21.93
2023-01-19T20:14:51.010Z,23.20
2023-01-19T20:17:25.104Z,23.12
2023-01-19T20:19:59.149Z,21.60
2023-01-19T20:22:34.653Z,15.68
2023-01-19T20:25:07.973Z,22.75
2023-01-19T20:27:40.408Z,21.93
2023-01-19T20:30:13.671Z,22.05
2023-01-19T20:32:46.072Z,22.73
2023-01-19T20:35:18.355Z,19.23
2023-01-19T20:37:50.915Z,21.15
2023-01-19T20:40:23.320Z,20.25
2023-01-19T20:42:56.202Z,22.27
2023-01-19T20:45:28.451Z,19.87
2023-01-19T20:48:00.693Z,16.10
2023-01-19T20:50:32.991Z,23.07
2023-01-19T20:53:05.332Z,22.17
2023-01-19T20:55:37.981Z,24.05
2023-01-19T20:58:10.019Z,23.90
2023-01-19T21:00:42.422Z,25.05
2023-01-19T21:03:16.825Z,23.83
2023-01-19T21:11:01.554Z,24.15
2023-01-19T21:13:33.902Z,27.30
2023-01-19T21:16:06.757Z,25.17
2023-01-19T21:18:39.381Z,25.82
2023-01-19T21:21:28.519Z,24.25
2023-01-19T21:23:47.127Z,27.60
2023-01-19T21:26:19.704Z,26.75
2023-01-19T21:28:52.182Z,27.65
2023-01-19T21:31:27.093Z,28.32
2023-01-19T21:33:58.710Z,26.55
2023-01-19T21:36:31.083Z,27.70
2023-01-19T21:39:05.107Z,27.73
2023-01-19T21:41:39.102Z,24.90
2023-01-19T21:44:13.955Z,26.87
2023-01-19T21:46:46.362Z,27.58
2023-01-19T21:49:20.789Z,26.35
2023-01-19T21:54:24.288Z,24.30
2023-01-19T21:56:56.874Z,24.77
2023-01-19T21:59:29.870Z,25.45
2023-01-19T22:02:02.311Z,25.90
2023-01-19T22:04:35.524Z,16.15
2023-01-19T22:07:08.344Z,25.82
2023-01-19T22:09:40.499Z,25.48
2023-01-19T22:12:12.909Z,24.77
2023-01-19T22:14:45.112Z,26.52
2023-01-19T22:17:17.718Z,26.02
2023-01-19T22:19:50.169Z,26.17
2023-01-19T22:22:22.235Z,26.87
2023-01-19T22:24:54.577Z,25.27
2023-01-19T22:27:26.931Z,17.05
2023-01-19T22:29:58.929Z,24.95
2023-01-19T22:32:33.160Z,20.15
2023-01-19T22:35:05.281Z,25.43
2023-01-19T22:37:38.082Z,26.35
2023-01-19T22:40:11.189Z,26.85
2023-01-19T22:42:48.615Z,27.75
2023-01-19T22:45:21.902Z,25.20
2023-01-19T22:47:54.123Z,25.08
2023-01-19T22:50:26.371Z,24.52
2023-01-19T22:52:58.728Z,26.07
2023-01-19T22:55:31.591Z,26.05
2023-01-19T22:58:03.983Z,26.55
2023-01-19T23:00:36.479Z,22.98
2023-01-19T23:03:08.813Z,25.57
2023-01-19T23:05:40.929Z,25.23
2023-01-19T23:08:12.947Z,23.27
2023-01-19T23:10:45.117Z,25.52
2023-01-19T23:13:17.622Z,22.27
2023-01-19T23:15:49.948Z,24.65
2023-01-19T23:18:22.057Z,23.70
2023-01-19T23:20:54.399Z,24.45
2023-01-19T23:23:26.582Z,25.20
2023-01-19T23:26:04.457Z,24.60
2023-01-19T23:28:37.272Z,23.38
2023-01-19T23:31:30.202Z,24.25
2023-01-19T23:34:04.972Z,20.30
2023-01-19T23:36:38.725Z,24.98
2023-01-19T23:39:13.987Z,18.07
2023-01-19T23:41:48.298Z,23.62
2023-01-19T23:44:20.944Z,23.50
2023-01-19T23:46:53.697Z,22.60
2023-01-19T23:49:25.989Z,22.67
2023-01-19T23:51:58.904Z,21.90
2023-01-19T23:54:30.966Z,20.72
2023-01-19T23:57:02.921Z,21.62
2023-01-19T23:59:35.439Z,21.10
